^^
Saratoga-Weather Station Historical Data
Daily Summary for August 05, 2022 Units:  English    Metric   Both
Daily Weekly Monthly Yearly Custom
  High: Low: Average:
Temperature: 78.1 °F 65.7 °F 70.5 °F
Dew Point: 68.4 °F 55.8 °F 63.5 °F
Humidity: 94% 50% 80%
Wind Speed: 10.1mph 0mph 2.7mph
Wind Gust: 15mph - -
Wind- - West
Pressure: 30.2 in 29.8 in -
Precipitation: 0.35 in    
Historical Graphs
 
 
Tabular Data for August 05, 2022
Time Temperature Dew Point Pressure Wind Wind Speed Wind Gust Humidity Rainfall Rate (Hourly) solar
00:01 73.2 °F 67.8 °F 29.9 in Calm   2 mph 83% 0.03 in 0 W/m2
00:06 72.9 °F 67.8 °F 29.9 in East 2 mph 2 mph 84% 0.03 in 0 W/m2
00:11 72.7 °F 68.2 °F 29.9 in Calm   1 mph 86% 0.03 in 0 W/m2
00:16 72.3 °F 68.2 °F 29.9 in SSW 0.9 mph 2 mph 87% 0.03 in 0 W/m2
00:21 72.1 °F 68.4 °F 29.9 in Calm   1 mph 88% 0.03 in 0 W/m2
00:26 71.8 °F 68 °F 29.9 in Calm   1 mph 88% 0.03 in 0 W/m2
00:31 71.4 °F 67.6 °F 29.9 in South 2 mph 2 mph 88% 0.02 in 0 W/m2
00:36 71.2 °F 67.8 °F 29.9 in SSW 0.9 mph 2 mph 89% 0.02 in 0 W/m2
00:41 71.2 °F 68.2 °F 29.9 in SSW 0.9 mph 2 mph 90% 0.02 in 0 W/m2
00:46 71.1 °F 68 °F 29.9 in SSW 0.9 mph 2 mph 90% 0.02 in 0 W/m2
00:51 71.1 °F 68 °F 29.9 in SSW 0.9 mph 1 mph 90% 0.02 in 0 W/m2
00:56 70.9 °F 67.8 °F 29.9 in Calm   1 mph 90% 0.02 in 0 W/m2
01:02 70.9 °F 68.2 °F 29.9 in Calm     91% 0.01 in 0 W/m2
01:07 70.7 °F 68 °F 29.9 in Calm   1 mph 91% 0.01 in 0 W/m2
01:12 70.7 °F 68 °F 29.9 in Calm     91% 0.01 in 0 W/m2
01:17 70.5 °F 67.8 °F 29.9 in Calm   1 mph 91% 0.01 in 0 W/m2
01:22 70.5 °F 67.8 °F 29.9 in Calm   2 mph 91% 0.01 in 0 W/m2
01:27 70.3 °F 67.6 °F 29.9 in Calm   1 mph 91% 0 in 0 W/m2
01:32 70.3 °F 67.6 °F 29.9 in SSW 0.9 mph 2 mph 91% 0 in 0 W/m2
01:37 70.2 °F 67.5 °F 29.9 in Calm   2 mph 91% 0 in 0 W/m2
01:42 70.2 °F 67.5 °F 29.9 in Calm   1 mph 91% 0 in 0 W/m2
01:47 70.2 °F 67.6 °F 29.9 in Calm   2 mph 92% 0 in 0 W/m2
01:52 70.2 °F 67.6 °F 29.8 in SSW 0.9 mph 2 mph 92% 0 in 0 W/m2
01:57 70 °F 67.5 °F 29.8 in Calm   2 mph 92% 0 in 0 W/m2
02:02 70 °F 67.5 °F 29.8 in Calm     92% 0 in 0 W/m2
02:07 70 °F 67.5 °F 29.8 in SSW 2 mph 2 mph 92% 0 in 0 W/m2
02:12 70 °F 67.5 °F 29.8 in West 0.9 mph 3 mph 92% 0 in 0 W/m2
02:17 70.2 °F 67.6 °F 29.8 in SW 0.9 mph 2 mph 92% 0 in 0 W/m2
02:22 70.2 °F 67.6 °F 29.8 in SW 0.9 mph 3 mph 92% 0 in 0 W/m2
02:27 70.3 °F 67.8 °F 29.8 in SW 0.9 mph 2 mph 92% 0 in 0 W/m2
02:32 70.3 °F 67.8 °F 29.9 in Calm   1 mph 92% 0.01 in 0 W/m2
02:37 70.3 °F 67.8 °F 29.9 in Calm     92% 0.01 in 0 W/m2
02:42 70.2 °F 67.6 °F 29.9 in WNW 4 mph 9 mph 92% 0.01 in 0 W/m2
02:47 70.2 °F 67.6 °F 29.9 in NW 2 mph 3 mph 92% 0.01 in 0 W/m2
02:52 70.2 °F 67.5 °F 29.9 in ENE 0.9 mph 6 mph 91% 0.01 in 0 W/m2
02:57 70.2 °F 67.1 °F 29.9 in ESE 0.9 mph 1 mph 90% 0.01 in 0 W/m2
03:02 70.2 °F 67.5 °F 29.9 in WSW 2 mph 4 mph 91% 0.01 in 0 W/m2
03:07 70.2 °F 67.5 °F 29.9 in SW 0.9 mph 3 mph 91% 0.01 in 0 W/m2
03:12 70 °F 67.3 °F 29.9 in West 2 mph 5 mph 91% 0.01 in 0 W/m2
03:17 69.8 °F 66.7 °F 29.9 in West 4 mph 7 mph 90% 0.01 in 0 W/m2
03:22 70 °F 66.6 °F 29.9 in West 4 mph 9 mph 89% 0.01 in 0 W/m2
03:27 70.2 °F 66.4 °F 29.9 in WSW 4.9 mph 9 mph 88% 0.01 in 0 W/m2
03:32 70 °F 66.2 °F 29.9 in West 2 mph 8 mph 88% 0.02 in 0 W/m2
03:37 69.4 °F 66.4 °F 29.9 in WNW 4.9 mph 12 mph 90% 0.02 in 0 W/m2
03:42 69.3 °F 66.6 °F 29.9 in West 8.9 mph 10 mph 91% 0.02 in 0 W/m2
03:47 69.3 °F 66.6 °F 29.9 in WSW 4.9 mph 8 mph 91% 0.03 in 0 W/m2
03:52 69.3 °F 66.9 °F 29.9 in WNW 4 mph 11 mph 92% 0.05 in 0 W/m2
03:57 69.3 °F 66.9 °F 29.9 in West 4 mph 7 mph 92% 0.06 in 0 W/m2
04:02 69.1 °F 66.7 °F 29.9 in WNW 6.9 mph 12 mph 92% 0.07 in 0 W/m2
04:07 69.1 °F 66.7 °F 29.9 in WSW 4 mph 8 mph 92% 0.07 in 0 W/m2
04:12 69.1 °F 66.7 °F 29.9 in West 6.9 mph 11 mph 92% 0.07 in 0 W/m2
04:17 69.1 °F 66.9 °F 29.9 in West 2.9 mph 8 mph 93% 0.08 in 0 W/m2
04:22 69.1 °F 66.9 °F 29.9 in West 8.9 mph 12 mph 93% 0.08 in 0 W/m2
04:27 69.1 °F 66.9 °F 29.9 in West 2.9 mph 9 mph 93% 0.09 in 0 W/m2
04:32 69.1 °F 66.7 °F 29.9 in West 2.9 mph 9 mph 92% 0.07 in 0 W/m2
04:37 69.1 °F 66.7 °F 29.9 in WSW 6.9 mph 14 mph 92% 0.07 in 0 W/m2
04:42 69.3 °F 66.6 °F 29.9 in NW 10.1 mph 14 mph 91% 0.07 in 0 W/m2
04:47 69.1 °F 66.4 °F 29.9 in WNW 8.1 mph 12 mph 91% 0.06 in 0 W/m2
04:52 69.1 °F 66.4 °F 30 in WSW 10.1 mph 15 mph 91% 0.03 in 0 W/m2
04:57 68.7 °F 66 °F 29.9 in WSW 6.9 mph 11 mph 91% 0.06 in 0 W/m2
05:02 68.5 °F 66.2 °F 29.9 in WSW 6.9 mph 8 mph 92% 0.06 in 0 W/m2
05:07 68.4 °F 66 °F 29.9 in WSW 8.1 mph 10 mph 92% 0.07 in 0 W/m2
05:12 68.4 °F 66 °F 29.9 in WNW 4 mph 8 mph 92% 0.07 in 0 W/m2
05:17 68.2 °F 65.8 °F 29.9 in WNW 2.9 mph 8 mph 92% 0.06 in 0 W/m2
05:22 68.2 °F 65.8 °F 29.9 in WNW 2 mph 4 mph 92% 0.06 in 0 W/m2
05:27 67.8 °F 65.5 °F 29.9 in West 2.9 mph 8 mph 92% 0.06 in 0 W/m2
05:32 67.6 °F 65.3 °F 29.9 in West 2.9 mph 7 mph 92% 0.06 in 0 W/m2
05:37 67.6 °F 65.3 °F 29.9 in SW 0.9 mph 5 mph 92% 0.06 in 0 W/m2
05:42 67.6 °F 65.3 °F 29.9 in SW 2 mph 7 mph 92% 0.06 in 0 W/m2
05:47 67.5 °F 65.1 °F 29.9 in WSW 0.9 mph 4 mph 92% 0.06 in 0 W/m2
05:52 67.5 °F 65.1 °F 29.9 in SSE 2 mph 3 mph 92% 0.07 in 0 W/m2
05:57 67.5 °F 65.1 °F 29.9 in SSE 0.9 mph 4 mph 92% 0.03 in 0 W/m2
06:02 67.3 °F 65.1 °F 29.9 in Calm   1 mph 93% 0.02 in 0 W/m2
06:07 67.3 °F 65.1 °F 29.9 in SE 0.9 mph 3 mph 93% 0.02 in 0 W/m2
06:12 67.5 °F 65.7 °F 29.9 in ESE 0.9 mph 2 mph 94% 0.02 in 0 W/m2
06:17 67.5 °F 65.7 °F 29.9 in Calm     94% 0.02 in 0 W/m2
06:22 67.3 °F 65.5 °F 29.9 in Calm     94% 0.02 in 0 W/m2
06:27 67.3 °F 65.5 °F 29.9 in East 0.9 mph 2 mph 94% 0.02 in 0 W/m2
06:32 67.3 °F 65.5 °F 29.9 in South 0.9 mph 2 mph 94% 0.02 in 5 W/m2
06:37 67.3 °F 65.5 °F 29.9 in Calm   1 mph 94% 0.03 in 7 W/m2
06:42 67.3 °F 65.5 °F 29.9 in Calm   1 mph 94% 0.03 in 7 W/m2
06:47 67.3 °F 65.5 °F 29.9 in Calm     94% 0.02 in 0 W/m2
06:52 67.3 °F 65.5 °F 29.9 in Calm     94% 0.02 in 0 W/m2
06:57 67.1 °F 65.3 °F 29.9 in Calm     94% 0.02 in 7 W/m2
07:02 67.1 °F 65.3 °F 29.9 in Calm     94% 0.02 in 9 W/m2
07:07 66.9 °F 65.1 °F 29.9 in South 0.9 mph 2 mph 94% 0.01 in 11 W/m2
07:12 66.7 °F 64.9 °F 29.9 in NNW 2 mph 4 mph 94% 0.01 in 9 W/m2
07:17 66.6 °F 64.8 °F 29.9 in NNW 0.9 mph 2 mph 94% 0.01 in 7 W/m2
07:22 66.6 °F 64.8 °F 29.9 in Calm   4 mph 94% 0.01 in 7 W/m2
07:27 66.6 °F 64.8 °F 29.9 in NNW 0.9 mph 1 mph 94% 0.01 in 7 W/m2
07:32 66.6 °F 64.8 °F 29.9 in ESE 2 mph 3 mph 94% 0.02 in 7 W/m2
07:37 66.4 °F 64.2 °F 29.9 in WNW 2 mph 3 mph 93% 0.02 in 7 W/m2
07:42 66.2 °F 64 °F 29.9 in NW 0.9 mph 2 mph 93% 0.04 in 12 W/m2
07:47 66.4 °F 64 °F 29.9 in NW 4 mph 6 mph 92% 0.04 in 16 W/m2
07:52 66.6 °F 63.9 °F 29.9 in NW 0.9 mph 6 mph 91% 0.04 in 16 W/m2
07:57 66.7 °F 64 °F 29.9 in Calm   2 mph 91% 0.04 in 14 W/m2
08:02 66.9 °F 63.9 °F 29.9 in NW 2.9 mph 5 mph 90% 0.05 in 11 W/m2
08:07 66.9 °F 63.5 °F 29.9 in West 2 mph 9 mph 89% 0.06 in 11 W/m2
08:12 67.3 °F 63.9 °F 29.9 in NNW 4 mph 5 mph 89% 0.06 in 11 W/m2
08:17 67.1 °F 63.7 °F 29.9 in West 4 mph 5 mph 89% 0.08 in 12 W/m2
08:22 66.9 °F 63.5 °F 29.9 in WNW 4.9 mph 8 mph 89% 0.09 in 14 W/m2
08:27 66.7 °F 63.3 °F 29.9 in West 2.9 mph 7 mph 89% 0.1 in 21 W/m2
08:32 66.6 °F 63.5 °F 29.9 in WSW 2 mph 3 mph 90% 0.09 in 26 W/m2
08:37 66.4 °F 63.3 °F 29.9 in West 2.9 mph 6 mph 90% 0.09 in 26 W/m2
08:42 66.2 °F 63.5 °F 29.9 in West 2.9 mph 6 mph 91% 0.07 in 28 W/m2
08:47 66 °F 63.3 °F 29.9 in SW 4 mph 7 mph 91% 0.09 in 30 W/m2
08:52 65.8 °F 63.5 °F 29.9 in WSW 10.1 mph 10 mph 92% 0.09 in 28 W/m2
08:58 65.8 °F 63.5 °F 29.9 in WNW 4 mph 6 mph 92% 0.09 in 30 W/m2
09:03 65.8 °F 63.5 °F 29.9 in West 0.9 mph 10 mph 92% 0.08 in 28 W/m2
09:08 65.8 °F 63.5 °F 29.9 in WNW 2.9 mph 4 mph 92% 0.07 in 25 W/m2
09:13 65.8 °F 63.5 °F 29.9 in WSW 2 mph 4 mph 92% 0.06 in 51 W/m2
09:18 65.8 °F 63.5 °F 29.9 in Calm   4 mph 92% 0.05 in 40 W/m2
09:23 65.8 °F 63.5 °F 29.9 in WNW 2 mph 4 mph 92% 0.04 in 26 W/m2
09:28 65.8 °F 63.5 °F 29.9 in West 2.9 mph 6 mph 92% 0.03 in 21 W/m2
09:33 65.8 °F 63.5 °F 29.9 in SE 2.9 mph 3 mph 92% 0.02 in 35 W/m2
09:38 65.8 °F 63.7 °F 29.9 in WNW 2.9 mph 4 mph 93% 0.03 in 46 W/m2
09:43 65.8 °F 63.7 °F 29.9 in West 2 mph 4 mph 93% 0.02 in 69 W/m2
09:48 65.8 °F 63.7 °F 30 in West 4 mph 7 mph 93% 0.02 in 67 W/m2
09:53 65.7 °F 63.5 °F 30 in West 2 mph 7 mph 93% 0.02 in 65 W/m2
09:58 65.7 °F 63.5 °F 30 in NW 4 mph 6 mph 93% 0.02 in 58 W/m2
10:03 65.7 °F 63.5 °F 30 in WSW 2.9 mph 4 mph 93% 0.02 in 107 W/m2
10:08 65.8 °F 63.7 °F 30 in NW 2 mph 3 mph 93% 0.02 in 111 W/m2
10:13 65.8 °F 63.7 °F 30 in West 0.9 mph 2 mph 93% 0.02 in 163 W/m2
10:18 66 °F 63.9 °F 30 in ESE 0.9 mph 3 mph 93% 0.02 in 137 W/m2
10:23 66 °F 63.9 °F 30 in Calm     93% 0.02 in 137 W/m2
10:28 66.4 °F 64.2 °F 30 in Calm   1 mph 93% 0.02 in 121 W/m2
10:33 66.6 °F 64.4 °F 30 in SW 2 mph 3 mph 93% 0.02 in 79 W/m2
10:38 66.4 °F 64.2 °F 30 in NW 2 mph 2 mph 93% 0.02 in 69 W/m2
10:43 66.6 °F 64.4 °F 30 in NW 2.9 mph 6 mph 93% 0.02 in 86 W/m2
10:48 66.6 °F 64.4 °F 30 in West 2.9 mph 7 mph 93% 0.02 in 123 W/m2
10:53 66.6 °F 64.4 °F 30 in WSW 2.9 mph 7 mph 93% 0.02 in 127 W/m2
10:58 66.6 °F 64.4 °F 30 in WNW 4 mph 4 mph 93% 0.02 in 156 W/m2
11:03 66.7 °F 64.6 °F 30 in NW 0.9 mph 6 mph 93% 0.01 in 167 W/m2
11:08 66.9 °F 64.8 °F 30 in West 6 mph 7 mph 93% 0.01 in 193 W/m2
11:13 66.9 °F 64.8 °F 30 in West 0.9 mph 4 mph 93% 0.01 in 283 W/m2
11:18 67.3 °F 65.1 °F 30 in North 4.9 mph 7 mph 93% 0.01 in 408 W/m2
11:23 67.6 °F 65.5 °F 30 in West 8.1 mph 8 mph 93% 0.02 in 598 W/m2
11:28 67.8 °F 65.7 °F 30 in Calm   4 mph 93% 0.02 in 218 W/m2
11:33 68 °F 65.7 °F 30 in SSW 0.9 mph 3 mph 92% 0.02 in 167 W/m2
11:38 68.2 °F 65.5 °F 30 in West 2 mph 3 mph 91% 0.01 in 162 W/m2
11:43 68.2 °F 65.5 °F 30 in WSW 2.9 mph 3 mph 91% 0.01 in 207 W/m2
11:48 68.2 °F 65.5 °F 30 in SW 2 mph 5 mph 91% 0.01 in 237 W/m2
11:53 68.4 °F 65.7 °F 30 in WSW 4.9 mph 9 mph 91% 0.01 in 260 W/m2
11:58 68.4 °F 65.7 °F 30 in WNW 0.9 mph 7 mph 91% 0.01 in 338 W/m2
12:03 68.5 °F 65.5 °F 30 in SSW 2.9 mph 9 mph 90% 0.01 in 443 W/m2
12:08 68.7 °F 65.7 °F 30 in WNW 4 mph 7 mph 90% 0.01 in 197 W/m2
12:13 68.7 °F 65.3 °F 30 in WNW 0.9 mph 9 mph 89% 0.01 in 278 W/m2
12:18 68.9 °F 65.5 °F 30 in West 2.9 mph 6 mph 89% 0.01 in 418 W/m2
12:23 69.1 °F 65.7 °F 30 in WSW 6 mph 6 mph 89% 0 in 329 W/m2
12:28 69.3 °F 65.5 °F 30 in West 6.9 mph 10 mph 88% 0 in 392 W/m2
12:33 69.4 °F 65.7 °F 30 in West 0.9 mph 7 mph 88% 0 in 513 W/m2
12:38 70 °F 66.2 °F 30 in WNW 2 mph 10 mph 88% 0 in 257 W/m2
12:43 70 °F 66 °F 30 in WSW 6.9 mph 8 mph 87% 0 in 410 W/m2
12:48 69.8 °F 65.5 °F 30 in West 4 mph 9 mph 86% 0 in 285 W/m2
12:53 70 °F 65.7 °F 30 in WNW 6.9 mph 9 mph 86% 0 in 241 W/m2
12:58 70.2 °F 65.5 °F 30 in NW 4 mph 9 mph 85% 0 in 104 W/m2
13:03 70 °F 65.7 °F 30 in NW 4 mph 8 mph 86% 0 in 86 W/m2
13:08 69.4 °F 65.1 °F 30 in WSW 6.9 mph 7 mph 86% 0 in 79 W/m2
13:13 69.1 °F 64.8 °F 30 in WNW 2 mph 6 mph 86% 0 in 100 W/m2
13:18 68.9 °F 64.9 °F 30 in West 6 mph 7 mph 87% 0 in 130 W/m2
13:23 68.9 °F 64.9 °F 30 in West 0.9 mph 4 mph 87% 0 in 86 W/m2
13:28 68.9 °F 65.1 °F 30 in WSW 4 mph 7 mph 88% 0 in 70 W/m2
13:33 68.7 °F 64.9 °F 30 in West 0.9 mph 9 mph 88% 0 in 72 W/m2
13:38 68.5 °F 64.8 °F 30 in ESE 0.9 mph 3 mph 88% 0 in 165 W/m2
13:43 68.7 °F 65.3 °F 30 in WSW 2 mph 9 mph 89% 0 in 292 W/m2
13:48 69.3 °F 65.5 °F 30 in West 6 mph 6 mph 88% 0 in 443 W/m2
13:53 69.8 °F 65.8 °F 30 in WNW 8.1 mph 9 mph 87% 0 in 236 W/m2
13:58 70.2 °F 65.8 °F 30 in West 6 mph 7 mph 86% 0 in 244 W/m2
14:03 70.5 °F 66.2 °F 30 in WSW 2 mph 4 mph 86% 0 in 436 W/m2
14:08 71.1 °F 66.4 °F 30 in West 2 mph 4 mph 85% 0 in 364 W/m2
14:13 71.4 °F 66.7 °F 30 in WNW 2.9 mph 3 mph 85% 0 in 250 W/m2
14:18 71.8 °F 66.7 °F 30 in West 2.9 mph 6 mph 84% 0 in 329 W/m2
14:23 72 °F 66.6 °F 30 in NW 2.9 mph 4 mph 83% 0 in 420 W/m2
14:28 72.3 °F 66.9 °F 30 in West 2.9 mph 3 mph 83% 0 in 362 W/m2
14:33 72.9 °F 67.1 °F 30 in WNW 4 mph 7 mph 82% 0 in 524 W/m2
14:38 73.2 °F 67.5 °F 30 in West 0.9 mph 4 mph 82% 0 in 359 W/m2
14:43 73.6 °F 67.1 °F 30 in NW 4 mph 8 mph 80% 0 in 371 W/m2
14:48 73.8 °F 66.4 °F 30 in West 2.9 mph 7 mph 78% 0 in 911 W/m2
14:53 74.1 °F 66.7 °F 30 in WNW 8.9 mph 9 mph 78% 0 in 366 W/m2
14:58 73.9 °F 66.2 °F 30 in West 2.9 mph 7 mph 77% 0 in 378 W/m2
15:03 73.8 °F 66 °F 30 in West 6.9 mph 9 mph 77% 0 in 311 W/m2
15:08 73.6 °F 66.4 °F 30 in West 2.9 mph 8 mph 78% 0 in 265 W/m2
15:13 73.8 °F 66 °F 30 in WSW 4 mph 4 mph 77% 0 in 302 W/m2
15:18 73.9 °F 66.2 °F 30 in West 0.9 mph 6 mph 77% 0 in 341 W/m2
15:23 74.1 °F 66.7 °F 30 in North 4 mph 7 mph 78% 0 in 700 W/m2
15:28 74.7 °F 66.9 °F 30 in WNW 2.9 mph 7 mph 77% 0 in 424 W/m2
15:33 74.8 °F 66.4 °F 30 in NW 6 mph 8 mph 75% 0 in 336 W/m2
15:38 74.7 °F 65.5 °F 30 in West 0.9 mph 9 mph 73% 0 in 297 W/m2
15:43 74.8 °F 66 °F 30 in WNW 2 mph 7 mph 74% 0 in 269 W/m2
15:48 74.8 °F 66.4 °F 30 in West 4 mph 9 mph 75% 0 in 288 W/m2
15:53 74.8 °F 66 °F 30 in West 4 mph 7 mph 74% 0 in 279 W/m2
15:58 74.8 °F 66.4 °F 30 in WNW 2 mph 4 mph 75% 0 in 418 W/m2
16:03 75 °F 66.2 °F 30 in West 2 mph 4 mph 74% 0 in 218 W/m2
16:08 75.4 °F 66.9 °F 30 in NW 2.9 mph 3 mph 75% 0 in 272 W/m2
16:13 75.6 °F 66.7 °F 30 in Calm   3 mph 74% 0 in 232 W/m2
16:18 75.6 °F 66.7 °F 30 in NW 0.9 mph 1 mph 74% 0 in 267 W/m2
16:23 75.9 °F 66.6 °F 30 in Calm   3 mph 73% 0 in 264 W/m2
16:28 76.3 °F 66.9 °F 30 in Calm   2 mph 73% 0 in 241 W/m2
16:33 76.3 °F 64.9 °F 30 in North 6 mph 8 mph 68% 0 in 206 W/m2
16:38 76.5 °F 62.4 °F 30 in WNW 4 mph 10 mph 62% 0 in 186 W/m2
16:43 76.6 °F 62.2 °F 30 in West 4 mph 6 mph 61% 0 in 239 W/m2
16:48 76.6 °F 62.6 °F 30 in NW 2 mph 4 mph 62% 0 in 299 W/m2
16:54 76.8 °F 62.8 °F 30 in North 2.9 mph 7 mph 62% 0 in 214 W/m2
16:59 76.8 °F 61.9 °F 30 in WNW 4 mph 10 mph 60% 0 in 497 W/m2
17:04 76.6 °F 62.2 °F 30 in NW 2 mph 9 mph 61% 0 in 253 W/m2
17:09 76.3 °F 61.9 °F 30 in WNW 2 mph 7 mph 61% 0 in 200 W/m2
17:14 76.3 °F 62.2 °F 30 in NW 2 mph 9 mph 62% 0 in 234 W/m2
17:19 76.3 °F 61.9 °F 30 in NNW 4.9 mph 6 mph 61% 0 in 149 W/m2
17:24 76.3 °F 61.9 °F 30 in WNW 6 mph 6 mph 61% 0 in 171 W/m2
17:29 76.3 °F 61.9 °F 30 in Calm   2 mph 61% 0 in 178 W/m2
17:34 76.3 °F 61.3 °F 30 in North 2.9 mph 4 mph 60% 0 in 200 W/m2
17:39 76.3 °F 60.4 °F 30 in NNW 0.9 mph 8 mph 58% 0 in 186 W/m2
17:44 76.3 °F 60.4 °F 30 in NW 2.9 mph 3 mph 58% 0 in 141 W/m2
17:49 76.1 °F 60.3 °F 30 in NW 4.9 mph 9 mph 58% 0 in 190 W/m2
17:54 76.1 °F 60.3 °F 30 in Calm   4 mph 58% 0 in 185 W/m2
17:59 76.3 °F 59.9 °F 30 in NE 2 mph 9 mph 57% 0 in 135 W/m2
18:04 76.3 °F 59.9 °F 30 in NNW 4.9 mph 8 mph 57% 0 in 134 W/m2
18:09 76.6 °F 59.7 °F 30 in North 2 mph 8 mph 56% 0 in 524 W/m2
18:14 76.8 °F 59.9 °F 30 in NNW 2 mph 8 mph 56% 0 in 524 W/m2
18:19 76.8 °F 59 °F 30 in NW 4.9 mph 5 mph 54% 0 in 304 W/m2
18:24 76.8 °F 59 °F 30 in West 2 mph 3 mph 54% 0 in 350 W/m2
18:29 77.2 °F 59.7 °F 30 in NNW 0.9 mph 7 mph 55% 0 in 306 W/m2
18:34 77.5 °F 59.5 °F 30 in NW 4 mph 6 mph 54% 0 in 316 W/m2
18:39 77.7 °F 59.2 °F 30 in NW 0.9 mph 2 mph 53% 0 in 318 W/m2
18:44 77.9 °F 59.4 °F 30 in SE 2 mph 4 mph 53% 0 in 330 W/m2
18:49 78.1 °F 59.5 °F 30 in SE 2 mph 5 mph 53% 0 in 325 W/m2
18:54 78.1 °F 57.9 °F 30 in NW 2 mph 6 mph 50% 0 in 290 W/m2
18:59 77.5 °F 57.9 °F 30 in West 8.9 mph 9 mph 51% 0 in 77 W/m2
19:04 77.2 °F 57.7 °F 30 in NW 2.9 mph 6 mph 51% 0 in 120 W/m2
19:09 77.2 °F 57.7 °F 30 in Calm   4 mph 51% 0 in 90 W/m2
19:14 77.5 °F 57.9 °F 30 in Calm   2 mph 51% 0 in 84 W/m2
19:19 77.7 °F 58.1 °F 30 in NNW 4 mph 4 mph 51% 0 in 60 W/m2
19:24 77.2 °F 57 °F 30 in West 4 mph 8 mph 50% 0 in 62 W/m2
19:29 76.6 °F 57.2 °F 30 in WNW 0.9 mph 4 mph 51% 0 in 83 W/m2
19:34 76.6 °F 57.2 °F 30 in SW 2.9 mph 8 mph 51% 0 in 77 W/m2
19:39 76.6 °F 57.2 °F 30 in WNW 2 mph 10 mph 51% 0 in 76 W/m2
19:44 76.6 °F 57.7 °F 30 in NNW 2 mph 6 mph 52% 0 in 62 W/m2
19:49 76.3 °F 57.4 °F 30 in West 2.9 mph 10 mph 52% 0 in 62 W/m2
19:54 75.9 °F 57.6 °F 30 in West 8.1 mph 9 mph 53% 0 in 54 W/m2
19:59 75.6 °F 57.2 °F 30.1 in WNW 2 mph 10 mph 53% 0 in 49 W/m2
20:04 75.2 °F 57.4 °F 30.1 in West 6.9 mph 9 mph 54% 0 in 46 W/m2
20:09 74.8 °F 57.6 °F 30.1 in NW 4.9 mph 9 mph 55% 0 in 40 W/m2
20:14 74.5 °F 57.7 °F 30.1 in West 6.9 mph 10 mph 56% 0 in 37 W/m2
20:19 74.1 °F 57.4 °F 30.1 in WSW 4.9 mph 9 mph 56% 0 in 33 W/m2
20:24 73.9 °F 57.7 °F 30.1 in WNW 10.1 mph 10 mph 57% 0 in 30 W/m2
20:29 73.8 °F 58.1 °F 30.1 in WNW 8.1 mph 8 mph 58% 0 in 28 W/m2
20:34 73.4 °F 57.7 °F 30.1 in NNW 4 mph 9 mph 58% 0 in 28 W/m2
20:39 73 °F 57.4 °F 30.1 in WNW 2.9 mph 6 mph 58% 0 in 28 W/m2
20:44 72.9 °F 57.7 °F 30.1 in West 6 mph 8 mph 59% 0 in 25 W/m2
20:49 72.7 °F 57.6 °F 30.1 in Calm   2 mph 59% 0 in 19 W/m2
20:54 72.3 °F 57.2 °F 30.1 in WNW 4 mph 8 mph 59% 0 in 14 W/m2
20:59 72.1 °F 57 °F 30.1 in NW 2.9 mph 6 mph 59% 0 in 12 W/m2
21:04 72 °F 56.8 °F 30.1 in WSW 2 mph 7 mph 59% 0 in 9 W/m2
21:09 71.6 °F 56.5 °F 30.1 in West 0.9 mph 9 mph 59% 0 in 7 W/m2
21:14 71.2 °F 56.1 °F 30.1 in NW 8.9 mph 9 mph 59% 0 in 5 W/m2
21:19 71.1 °F 55.9 °F 30.1 in NW 4.9 mph 9 mph 59% 0 in 5 W/m2
21:24 70.9 °F 56.3 °F 30.1 in WNW 4 mph 7 mph 60% 0 in 0 W/m2
21:29 70.7 °F 56.7 °F 30.1 in WNW 6.9 mph 7 mph 61% 0 in 0 W/m2
21:34 70.5 °F 56.5 °F 30.1 in Calm   4 mph 61% 0 in 0 W/m2
21:39 70.3 °F 56.7 °F 30.1 in WSW 0.9 mph 7 mph 62% 0 in 0 W/m2
21:44 70.2 °F 56.5 °F 30.1 in WNW 2.9 mph 3 mph 62% 0 in 0 W/m2
21:49 70.2 °F 57 °F 30.1 in NNW 2 mph 4 mph 63% 0 in 0 W/m2
21:54 69.8 °F 56.7 °F 30.1 in NE 2.9 mph 7 mph 63% 0 in 0 W/m2
21:59 69.6 °F 56.5 °F 30.1 in North 2 mph 4 mph 63% 0 in 0 W/m2
22:04 69.4 °F 56.7 °F 30.1 in NNE 0.9 mph 4 mph 64% 0 in 0 W/m2
22:09 69.3 °F 56.5 °F 30.1 in North 4.9 mph 5 mph 64% 0 in 0 W/m2
22:14 69.1 °F 56.8 °F 30.1 in NW 0.9 mph 2 mph 65% 0 in 0 W/m2
22:19 68.7 °F 56.5 °F 30.1 in WNW 2 mph 2 mph 65% 0 in 0 W/m2
22:24 68.5 °F 56.3 °F 30.1 in WNW 0.9 mph 2 mph 65% 0 in 0 W/m2
22:29 68.5 °F 56.7 °F 30.1 in NE 0.9 mph 3 mph 66% 0 in 0 W/m2
22:34 68.4 °F 56.5 °F 30.1 in NW 2 mph 3 mph 66% 0 in 0 W/m2
22:39 68.2 °F 56.8 °F 30.1 in North 0.9 mph 2 mph 67% 0 in 0 W/m2
22:44 67.8 °F 56.8 °F 30.1 in NNW 0.9 mph 2 mph 68% 0 in 0 W/m2
22:49 67.6 °F 56.7 °F 30.1 in NW 2 mph 4 mph 68% 0 in 0 W/m2
22:54 67.6 °F 56.7 °F 30.1 in NNW 0.9 mph 4 mph 68% 0 in 0 W/m2
22:59 67.5 °F 56.5 °F 30.2 in NW 2.9 mph 3 mph 68% 0 in 0 W/m2
23:04 67.3 °F 56.3 °F 30.2 in West 2 mph 4 mph 68% 0 in 0 W/m2
23:09 67.1 °F 56.1 °F 30.2 in West 2 mph 4 mph 68% 0 in 0 W/m2
23:14 66.9 °F 56.5 °F 30.2 in West 2.9 mph 3 mph 69% 0 in 0 W/m2
23:19 66.9 °F 56.5 °F 30.2 in Calm   2 mph 69% 0 in 0 W/m2
23:24 66.7 °F 56.3 °F 30.2 in Calm   1 mph 69% 0 in 0 W/m2
23:29 66.6 °F 56.1 °F 30.2 in NW 4.9 mph 6 mph 69% 0 in 0 W/m2
23:34 66.6 °F 56.1 °F 30.2 in WNW 2 mph 4 mph 69% 0 in 0 W/m2
23:39 66.4 °F 56.3 °F 30.2 in WNW 2 mph 3 mph 70% 0 in 0 W/m2
23:44 66.2 °F 56.1 °F 30.2 in WNW 2 mph 4 mph 70% 0 in 0 W/m2
23:49 66 °F 55.9 °F 30.2 in NNE 0.9 mph 2 mph 70% 0 in 0 W/m2
23:54 66 °F 55.9 °F 30.2 in NNW 2 mph 4 mph 70% 0 in 0 W/m2
23:59 65.8 °F 55.8 °F 30.2 in West 2 mph 4 mph 70% 0 in 0 W/m2
Juneau County Weather
Compliments of Weather Underground - 4 mb